createdAt,value
2023-01-23T00:01:32.539Z,13.85
2023-01-23T00:04:00.668Z,13.85
2023-01-23T00:06:28.353Z,14.27
2023-01-23T00:08:58.949Z,14.05
2023-01-23T00:11:28.601Z,13.48
2023-01-23T00:13:57.647Z,14.50
2023-01-23T00:16:27.467Z,13.90
2023-01-23T00:18:54.398Z,14.00
2023-01-23T00:21:23.517Z,14.60
2023-01-23T00:24:01.820Z,16.58
2023-01-23T00:26:30.497Z,14.85
2023-01-23T00:28:57.571Z,16.65
2023-01-23T00:31:30.709Z,18.02
2023-01-23T00:34:03.502Z,17.55
2023-01-23T00:36:36.437Z,15.20
2023-01-23T00:39:06.785Z,15.75
2023-01-23T00:41:33.970Z,15.55
2023-01-23T00:44:00.811Z,16.38
2023-01-23T00:46:27.654Z,16.55
2023-01-23T00:48:56.893Z,17.23
2023-01-23T00:51:24.402Z,17.15
2023-01-23T00:53:51.341Z,16.50
2023-01-23T00:56:18.237Z,17.38
2023-01-23T00:58:45.509Z,17.65
2023-01-23T01:01:14.060Z,17.27
2023-01-23T01:03:41.895Z,18.25
2023-01-23T01:06:09.708Z,18.02
2023-01-23T01:08:37.100Z,17.27
2023-01-23T01:11:04.575Z,19.52
2023-01-23T01:13:31.387Z,17.83
2023-01-23T01:16:01.825Z,19.92
2023-01-23T01:18:29.597Z,17.58
2023-01-23T01:20:57.605Z,16.38
2023-01-23T01:23:24.542Z,19.15
2023-01-23T01:25:51.967Z,16.55
2023-01-23T01:28:18.855Z,17.35
2023-01-23T01:30:47.883Z,17.35
2023-01-23T01:33:14.817Z,18.33
2023-01-23T01:35:42.277Z,18.77
2023-01-23T01:38:09.514Z,18.90
2023-01-23T01:40:37.223Z,18.70
2023-01-23T01:43:07.511Z,20.50
2023-01-23T01:46:03.922Z,19.13
2023-01-23T01:48:36.328Z,18.65
2023-01-23T01:51:09.651Z,18.00
2023-01-23T01:53:37.887Z,19.30
2023-01-23T01:56:06.086Z,21.52
2023-01-23T01:58:33.925Z,18.70
2023-01-23T02:01:00.923Z,20.25
2023-01-23T02:03:28.344Z,19.65
2023-01-23T02:05:55.619Z,21.13
2023-01-23T02:08:32.863Z,21.27
2023-01-23T02:11:03.535Z,20.75
2023-01-23T02:13:36.078Z,22.50
2023-01-23T02:16:12.427Z,22.25
2023-01-23T02:18:45.682Z,20.45
2023-01-23T02:21:15.340Z,22.58
2023-01-23T02:23:55.419Z,20.00
2023-01-23T02:26:36.709Z,21.27
2023-01-23T02:29:05.893Z,22.75
2023-01-23T02:31:44.278Z,24.52
2023-01-23T02:34:13.826Z,23.77
2023-01-23T02:36:44.860Z,24.45
2023-01-23T02:39:17.907Z,24.83
2023-01-23T02:41:50.803Z,22.40
2023-01-23T02:44:29.015Z,22.58
2023-01-23T02:47:02.130Z,25.95
2023-01-23T02:49:30.023Z,27.40
2023-01-23T02:51:57.570Z,27.08
2023-01-23T02:54:25.041Z,25.98
2023-01-23T02:56:52.891Z,26.38
2023-01-23T02:59:43.128Z,27.42
2023-01-23T03:02:10.428Z,26.23
2023-01-23T03:04:37.482Z,26.50
2023-01-23T03:07:04.495Z,26.40
2023-01-23T03:09:31.273Z,26.23
2023-01-23T03:11:58.768Z,25.10
2023-01-23T03:14:26.474Z,25.85
2023-01-23T03:16:55.146Z,25.80
2023-01-23T03:19:28.579Z,25.98
2023-01-23T03:21:55.456Z,25.38
2023-01-23T03:24:22.381Z,22.83
2023-01-23T03:26:51.017Z,27.38
2023-01-23T03:29:41.910Z,25.83
2023-01-23T03:32:11.333Z,25.17
2023-01-23T03:34:41.917Z,24.20
2023-01-23T03:37:09.832Z,24.33
2023-01-23T03:39:56.880Z,22.75
2023-01-23T03:42:25.066Z,24.60
2023-01-23T03:44:53.515Z,22.20
2023-01-23T03:47:28.920Z,24.83
2023-01-23T03:49:56.198Z,25.05
2023-01-23T03:52:24.406Z,26.58
2023-01-23T03:54:51.634Z,25.20
2023-01-23T03:57:19.383Z,24.77
2023-01-23T04:00:05.692Z,25.20
2023-01-23T04:02:45.477Z,23.15
2023-01-23T04:05:14.800Z,24.40
2023-01-23T04:07:41.582Z,25.75
2023-01-23T04:10:10.747Z,24.77
2023-01-23T04:12:39.622Z,26.25
2023-01-23T04:15:08.719Z,24.75
2023-01-23T04:17:41.236Z,21.15
2023-01-23T04:20:09.930Z,19.88
2023-01-23T04:22:36.696Z,23.58
2023-01-23T04:25:03.729Z,20.58
2023-01-23T04:27:31.953Z,19.80
2023-01-23T04:29:59.237Z,17.70
2023-01-23T04:32:26.129Z,16.95
2023-01-23T04:34:53.144Z,14.10
2023-01-23T04:37:19.951Z,13.38
2023-01-23T04:39:46.814Z,12.80
2023-01-23T04:42:14.295Z,14.57
2023-01-23T04:44:50.003Z,15.75
2023-01-23T04:47:19.551Z,10.13
2023-01-23T04:49:48.480Z,9.52
2023-01-23T04:52:16.311Z,8.98
2023-01-23T04:54:52.711Z,10.00
2023-01-23T04:57:19.979Z,9.93
2023-01-23T04:59:48.332Z,8.73
2023-01-23T05:02:16.352Z,8.20
2023-01-23T05:04:44.845Z,8.55
2023-01-23T05:07:12.430Z,9.23
2023-01-23T05:09:44.207Z,7.65
2023-01-23T05:12:14.390Z,8.25
2023-01-23T05:14:41.992Z,7.47
2023-01-23T05:17:08.936Z,7.00
2023-01-23T05:19:40.583Z,7.13
2023-01-23T05:22:09.000Z,7.03
2023-01-23T05:24:35.927Z,5.82
2023-01-23T05:27:03.567Z,6.03
2023-01-23T05:29:31.869Z,6.90
2023-01-23T05:32:02.544Z,8.30
2023-01-23T05:34:42.121Z,8.15
2023-01-23T05:37:38.981Z,8.10
2023-01-23T05:40:08.714Z,8.23
2023-01-23T05:42:54.710Z,8.30
2023-01-23T05:45:42.249Z,8.88
2023-01-23T05:48:15.900Z,8.13
2023-01-23T05:50:42.845Z,9.40
2023-01-23T05:53:09.705Z,9.07
2023-01-23T05:55:40.800Z,9.68
2023-01-23T05:58:10.566Z,8.88
2023-01-23T06:00:56.876Z,9.00
2023-01-23T06:03:47.577Z,9.63
2023-01-23T06:06:31.980Z,7.95
2023-01-23T06:09:00.016Z,8.00
2023-01-23T06:11:29.237Z,7.88
2023-01-23T06:13:56.911Z,9.77
2023-01-23T06:16:23.740Z,10.20
2023-01-23T06:18:51.388Z,9.07
2023-01-23T06:21:18.954Z,7.40
2023-01-23T06:23:46.204Z,7.45
2023-01-23T06:26:13.854Z,6.30
2023-01-23T06:28:40.783Z,6.60
2023-01-23T06:31:10.383Z,5.82
2023-01-23T06:33:51.630Z,7.25
2023-01-23T06:36:22.073Z,8.65
2023-01-23T06:38:49.657Z,8.63
2023-01-23T06:41:19.824Z,7.55
2023-01-23T06:43:51.464Z,9.73
2023-01-23T06:46:22.534Z,8.68
2023-01-23T06:48:49.778Z,8.70
2023-01-23T06:51:16.586Z,9.45
2023-01-23T06:53:45.183Z,11.23
2023-01-23T06:56:12.742Z,11.40
2023-01-23T06:58:39.840Z,11.77
2023-01-23T07:01:18.419Z,11.77
2023-01-23T07:04:04.288Z,11.23
2023-01-23T07:06:32.012Z,10.70
2023-01-23T07:08:59.263Z,11.38
2023-01-23T07:11:26.070Z,14.25
2023-01-23T07:13:56.465Z,13.15
2023-01-23T07:16:24.930Z,13.80
2023-01-23T07:18:52.433Z,15.40
2023-01-23T07:21:19.209Z,14.40
2023-01-23T07:23:45.958Z,14.05
2023-01-23T07:26:12.739Z,17.33
2023-01-23T07:28:39.896Z,16.00
2023-01-23T07:31:07.036Z,16.45
2023-01-23T07:33:34.185Z,20.27
2023-01-23T07:36:01.443Z,19.50
2023-01-23T07:38:28.252Z,21.85
2023-01-23T07:40:58.957Z,17.20
2023-01-23T07:43:26.429Z,19.60
2023-01-23T07:45:53.616Z,17.60
2023-01-23T07:48:20.409Z,16.13
2023-01-23T07:50:47.147Z,18.88
2023-01-23T07:53:16.950Z,17.80
2023-01-23T07:55:44.319Z,20.95
2023-01-23T07:58:11.160Z,18.85
2023-01-23T08:00:39.515Z,19.60
2023-01-23T08:03:06.344Z,21.30
2023-01-23T08:05:33.232Z,20.85
2023-01-23T08:08:12.638Z,22.60
2023-01-23T08:10:40.731Z,20.65
2023-01-23T08:13:08.074Z,21.10
2023-01-23T08:15:36.617Z,22.52
2023-01-23T08:18:03.448Z,19.52
2023-01-23T08:20:30.853Z,21.15
2023-01-23T08:22:59.067Z,20.27
2023-01-23T08:25:26.084Z,24.30
2023-01-23T08:27:52.901Z,21.33
2023-01-23T08:30:20.022Z,22.70
2023-01-23T08:32:47.143Z,21.80
2023-01-23T08:35:14.081Z,19.60
2023-01-23T08:37:42.315Z,24.63
2023-01-23T08:40:10.019Z,25.33
2023-01-23T08:42:37.189Z,31.13
2023-01-23T08:45:04.768Z,22.58
2023-01-23T08:47:36.897Z,23.35
2023-01-23T08:50:05.156Z,22.08
2023-01-23T08:52:32.152Z,22.42
2023-01-23T08:54:58.984Z,24.27
2023-01-23T08:57:25.899Z,23.60
2023-01-23T08:59:52.648Z,24.88
2023-01-23T09:02:19.616Z,21.35
2023-01-23T09:04:46.774Z,22.27
2023-01-23T09:07:13.730Z,22.65
2023-01-23T09:09:40.512Z,22.55
2023-01-23T09:12:08.308Z,20.70
2023-01-23T09:14:35.079Z,24.13
2023-01-23T09:17:02.091Z,18.92
2023-01-23T09:19:31.714Z,24.92
2023-01-23T09:22:01.698Z,20.50
2023-01-23T09:24:28.608Z,21.20
2023-01-23T09:26:55.393Z,21.08
2023-01-23T09:29:22.281Z,18.90
2023-01-23T09:31:49.081Z,18.73
2023-01-23T09:34:17.264Z,20.50
2023-01-23T09:36:44.385Z,18.27
2023-01-23T09:39:12.351Z,17.52
2023-01-23T09:41:41.354Z,17.95
2023-01-23T09:44:29.335Z,17.25
2023-01-23T09:47:02.543Z,18.00
2023-01-23T09:49:42.758Z,21.38
2023-01-23T09:52:16.752Z,18.17
2023-01-23T09:54:46.565Z,18.77
2023-01-23T09:57:18.336Z,19.00
2023-01-23T09:59:59.925Z,19.25
2023-01-23T10:02:28.071Z,18.75
2023-01-23T10:04:56.564Z,19.85
2023-01-23T10:07:45.251Z,16.67
2023-01-23T10:10:30.751Z,18.88
2023-01-23T10:13:11.480Z,20.58
2023-01-23T10:16:09.824Z,18.08
2023-01-23T10:19:01.729Z,20.50
2023-01-23T10:21:28.475Z,19.33
2023-01-23T10:24:16.893Z,16.38
2023-01-23T10:26:46.671Z,18.25
2023-01-23T10:29:35.115Z,17.50
2023-01-23T10:32:05.751Z,15.80
2023-01-23T10:34:44.738Z,18.30
2023-01-23T10:37:38.973Z,19.45
2023-01-23T10:40:15.573Z,19.00
2023-01-23T10:42:43.221Z,18.92
2023-01-23T10:45:19.289Z,17.80
2023-01-23T10:47:54.654Z,17.75
2023-01-23T10:50:37.252Z,17.38
2023-01-23T10:53:15.516Z,16.00
2023-01-23T10:55:45.733Z,16.60
2023-01-23T10:58:39.383Z,17.67
2023-01-23T11:01:23.639Z,16.30
2023-01-23T11:03:50.676Z,21.35
2023-01-23T11:06:20.620Z,16.70
2023-01-23T11:09:00.406Z,17.38
2023-01-23T11:11:29.430Z,16.52
2023-01-23T11:14:16.810Z,15.70
2023-01-23T11:16:44.025Z,16.40
2023-01-23T11:19:18.238Z,16.75
2023-01-23T11:21:56.910Z,18.67
2023-01-23T11:24:39.789Z,16.83
2023-01-23T11:27:20.313Z,17.38
2023-01-23T11:30:08.692Z,19.13
2023-01-23T11:32:54.114Z,18.42
2023-01-23T11:35:44.427Z,17.25
2023-01-23T11:38:18.014Z,19.20
2023-01-23T11:40:48.113Z,19.92
2023-01-23T11:43:16.378Z,20.70
2023-01-23T11:46:01.060Z,19.15
2023-01-23T11:48:59.706Z,21.13
2023-01-23T11:51:51.545Z,20.80
2023-01-23T11:54:33.661Z,22.08
2023-01-23T11:57:28.149Z,21.02
2023-01-23T12:00:24.879Z,20.98
2023-01-23T12:03:03.880Z,21.75
2023-01-23T12:05:33.865Z,22.38
2023-01-23T12:08:23.656Z,24.80
2023-01-23T12:10:53.588Z,24.10
2023-01-23T12:13:41.675Z,24.20
2023-01-23T12:16:20.687Z,22.77
2023-01-23T12:19:10.108Z,24.20
2023-01-23T12:22:02.270Z,23.33
2023-01-23T12:24:41.130Z,27.50
2023-01-23T12:27:44.561Z,21.75
2023-01-23T12:30:22.110Z,21.30
2023-01-23T12:32:51.811Z,23.63
2023-01-23T12:35:46.510Z,23.17
2023-01-23T12:38:35.287Z,23.20
2023-01-23T12:41:13.804Z,24.52
2023-01-23T12:43:50.995Z,24.85
2023-01-23T12:46:32.151Z,21.02
2023-01-23T12:49:28.664Z,24.50
2023-01-23T12:52:27.838Z,24.13
2023-01-23T12:55:03.726Z,27.17
2023-01-23T12:57:59.030Z,22.70
2023-01-23T13:00:46.250Z,25.80
2023-01-23T13:03:29.008Z,22.60
2023-01-23T13:06:00.975Z,21.98
2023-01-23T13:08:58.061Z,21.70
2023-01-23T13:11:42.109Z,21.67
2023-01-23T13:15:00.641Z,22.17
2023-01-23T13:17:58.745Z,24.92
2023-01-23T13:20:48.650Z,22.73
2023-01-23T13:23:29.479Z,22.40
2023-01-23T13:26:12.444Z,23.52
2023-01-23T13:28:46.228Z,24.58
2023-01-23T13:31:46.607Z,26.52
2023-01-23T13:34:16.719Z,23.67
2023-01-23T13:36:54.218Z,24.92
2023-01-23T13:39:29.783Z,23.55
2023-01-23T13:42:15.057Z,25.38
2023-01-23T13:45:16.018Z,24.63
2023-01-23T14:22:56.068Z,28.40
2023-01-23T14:25:23.360Z,29.10
2023-01-23T14:28:03.606Z,32.30
2023-01-23T14:30:31.645Z,26.17
2023-01-23T14:33:01.662Z,30.60
2023-01-23T14:35:33.178Z,30.23
2023-01-23T14:38:03.252Z,28.40
2023-01-23T14:40:40.080Z,26.40
2023-01-23T14:43:20.407Z,27.00
2023-01-23T14:45:49.740Z,28.25
2023-01-23T14:48:18.078Z,26.95
2023-01-23T14:50:45.046Z,30.38
2023-01-23T14:53:17.057Z,30.05
2023-01-23T14:55:50.654Z,27.00
2023-01-23T14:58:24.985Z,30.48
2023-01-23T15:00:53.793Z,28.17
2023-01-23T15:03:44.434Z,31.08
2023-01-23T15:06:20.095Z,30.15
2023-01-23T15:08:47.282Z,32.05
2023-01-23T15:11:14.907Z,28.05
2023-01-23T15:13:50.254Z,30.65
2023-01-23T15:16:20.262Z,28.60
2023-01-23T15:18:53.400Z,29.25
2023-01-23T15:21:30.557Z,30.20
2023-01-23T15:24:25.437Z,25.60
2023-01-23T15:27:03.577Z,30.42
2023-01-23T15:29:30.969Z,31.02
2023-01-23T15:31:58.767Z,29.70
2023-01-23T15:34:34.015Z,30.17
2023-01-23T15:37:20.087Z,33.00
2023-01-23T15:40:02.466Z,32.85
2023-01-23T15:42:31.973Z,30.33
2023-01-23T15:45:01.436Z,29.33
2023-01-23T15:47:32.454Z,31.00
2023-01-23T15:50:02.990Z,29.50
2023-01-23T15:52:44.818Z,31.98
2023-01-23T15:55:11.971Z,30.55
2023-01-23T15:57:38.865Z,33.60
2023-01-23T16:00:16.396Z,30.02
2023-01-23T16:02:55.155Z,30.50
2023-01-23T16:05:32.180Z,33.70
2023-01-23T16:08:02.549Z,31.38
2023-01-23T16:10:36.353Z,28.13
2023-01-23T16:13:04.109Z,31.40
2023-01-23T16:15:33.459Z,32.97
2023-01-23T16:18:02.940Z,32.30
2023-01-23T16:20:38.425Z,30.05
2023-01-23T16:23:15.141Z,30.20
2023-01-23T16:25:45.654Z,31.27
2023-01-23T16:28:19.297Z,33.30
2023-01-23T16:30:47.113Z,32.83
2023-01-23T16:33:13.978Z,33.65
2023-01-23T16:35:41.494Z,32.65
2023-01-23T16:38:24.962Z,36.05
2023-01-23T16:40:53.307Z,31.95
2023-01-23T16:43:21.650Z,34.08
2023-01-23T16:45:48.453Z,33.60
2023-01-23T16:48:25.405Z,31.33
2023-01-23T16:50:57.470Z,35.17
2023-01-23T16:53:35.981Z,36.55
2023-01-23T16:56:04.283Z,36.55
2023-01-23T16:58:41.166Z,34.20
2023-01-23T17:01:16.125Z,35.53
2023-01-23T17:03:44.326Z,35.72
2023-01-23T17:06:16.113Z,33.90
2023-01-23T17:08:42.989Z,35.72
2023-01-23T17:11:18.587Z,34.58
2023-01-23T17:13:45.618Z,35.53
2023-01-23T17:16:25.667Z,32.05
2023-01-23T17:18:54.854Z,33.83
2023-01-23T17:21:25.021Z,37.92
2023-01-23T17:23:52.200Z,35.25
2023-01-23T17:26:20.826Z,34.40
2023-01-23T17:28:47.781Z,31.75
2023-01-23T17:31:20.629Z,30.02
2023-01-23T17:33:47.987Z,33.58
2023-01-23T17:36:15.274Z,37.55
2023-01-23T17:38:42.265Z,33.70
2023-01-23T17:41:16.813Z,35.33
2023-01-23T17:43:44.741Z,50.83
2023-01-23T17:46:21.497Z,39.47
2023-01-23T17:48:48.786Z,36.50
2023-01-23T17:51:18.211Z,39.97
2023-01-23T17:53:45.351Z,42.67
2023-01-23T17:56:12.497Z,37.97
2023-01-23T17:58:39.606Z,54.05
2023-01-23T18:01:19.136Z,48.83
2023-01-23T18:03:46.497Z,40.63
2023-01-23T18:06:13.308Z,40.40
2023-01-23T18:08:42.294Z,37.65
2023-01-23T18:11:21.202Z,34.00
2023-01-23T18:14:11.656Z,37.28
2023-01-23T18:16:45.343Z,38.72
2023-01-23T18:19:19.767Z,36.83
2023-01-23T18:21:49.127Z,39.40
2023-01-23T18:24:27.457Z,40.53
2023-01-23T18:27:06.449Z,35.00
2023-01-23T18:29:57.410Z,40.92
2023-01-23T18:32:33.017Z,39.72
2023-01-23T18:35:38.714Z,34.63
2023-01-23T18:38:24.336Z,39.47
2023-01-23T18:41:25.585Z,35.78
2023-01-23T18:44:06.392Z,34.70
2023-01-23T18:46:33.983Z,39.53
2023-01-23T18:49:01.587Z,48.30
2023-01-23T18:51:54.223Z,39.70
2023-01-23T18:55:02.564Z,37.10
2023-01-23T18:57:43.206Z,40.22
2023-01-23T19:00:28.214Z,41.15
2023-01-23T19:03:16.523Z,40.45
2023-01-23T19:05:44.464Z,36.70
2023-01-23T19:08:30.707Z,38.38
2023-01-23T19:11:05.711Z,39.67
2023-01-23T19:13:43.701Z,38.40
2023-01-23T19:16:17.341Z,41.65
2023-01-23T19:19:14.690Z,38.33
2023-01-23T19:21:43.084Z,41.00
2023-01-23T19:24:11.143Z,40.35
2023-01-23T19:26:40.501Z,40.33
2023-01-23T19:29:25.805Z,39.35
2023-01-23T19:32:04.565Z,40.13
2023-01-23T19:34:33.556Z,39.78
2023-01-23T19:37:00.325Z,41.15
2023-01-23T19:39:27.332Z,37.63
2023-01-23T19:41:54.455Z,40.97
2023-01-23T19:44:24.898Z,40.55
2023-01-23T19:46:52.390Z,48.60
2023-01-23T19:49:20.267Z,43.30
2023-01-23T19:51:49.622Z,41.75
2023-01-23T19:54:16.524Z,41.13
2023-01-23T19:56:43.498Z,42.28
2023-01-23T19:59:10.608Z,42.53
2023-01-23T20:01:49.561Z,43.15
2023-01-23T20:04:19.989Z,42.85
2023-01-23T20:06:48.989Z,40.20
2023-01-23T20:09:16.450Z,44.25
2023-01-23T20:11:44.422Z,41.85
2023-01-23T20:14:11.589Z,40.67
2023-01-23T20:16:40.914Z,41.22
2023-01-23T20:19:07.929Z,40.65
2023-01-23T20:21:34.756Z,41.10
2023-01-23T20:24:02.206Z,43.33
2023-01-23T20:26:29.024Z,42.63
2023-01-23T20:28:58.954Z,45.55
2023-01-23T20:31:26.188Z,46.10
2023-01-23T20:33:53.703Z,44.35
2023-01-23T20:36:20.631Z,47.13
2023-01-23T20:38:48.036Z,43.60
2023-01-23T20:41:18.611Z,45.17
2023-01-23T20:43:46.573Z,42.65
2023-01-23T20:46:14.425Z,45.13
2023-01-23T20:48:44.321Z,44.15
2023-01-23T20:51:12.887Z,46.28
2023-01-23T20:53:40.734Z,48.47
2023-01-23T20:56:10.233Z,51.13
2023-01-23T20:58:58.520Z,47.35
2023-01-23T21:01:28.141Z,43.50
2023-01-23T21:03:55.114Z,46.10
2023-01-23T21:06:22.371Z,43.25
2023-01-23T21:08:49.200Z,48.50
2023-01-23T21:11:18.691Z,46.72
2023-01-23T21:13:51.065Z,49.75
2023-01-23T21:16:18.050Z,49.65
2023-01-23T21:18:46.850Z,47.25
2023-01-23T21:21:16.012Z,44.88
2023-01-23T21:23:45.672Z,49.42
2023-01-23T21:26:12.982Z,50.63
2023-01-23T21:28:39.767Z,48.28
2023-01-23T21:31:34.601Z,52.90
2023-01-23T21:34:03.892Z,48.42
2023-01-23T21:36:31.194Z,51.75
2023-01-23T21:38:58.599Z,51.90
2023-01-23T21:41:25.397Z,51.22
2023-01-23T21:43:52.171Z,48.05
2023-01-23T21:46:21.194Z,50.78
2023-01-23T21:48:48.059Z,47.83
2023-01-23T21:51:20.790Z,52.05
2023-01-23T21:53:50.088Z,55.13
2023-01-23T21:56:19.619Z,52.58
2023-01-23T21:58:49.522Z,54.95
2023-01-23T22:01:38.074Z,54.72
2023-01-23T22:04:06.165Z,52.40
2023-01-23T22:06:37.469Z,56.40
2023-01-23T22:09:05.130Z,57.03
2023-01-23T22:11:32.422Z,57.80
2023-01-23T22:14:00.033Z,54.75
2023-01-23T22:16:46.508Z,60.25
2023-01-23T22:19:15.816Z,67.78
2023-01-23T22:21:43.756Z,62.55
2023-01-23T22:24:11.126Z,66.20
2023-01-23T22:26:38.399Z,61.13
2023-01-23T22:29:05.281Z,57.83
2023-01-23T22:31:32.132Z,63.15
2023-01-23T22:33:59.092Z,53.05
2023-01-23T22:36:26.059Z,58.67
2023-01-23T22:38:54.461Z,60.42
2023-01-23T22:41:21.961Z,61.65
2023-01-23T22:43:59.423Z,54.45
2023-01-23T22:46:26.785Z,56.30
2023-01-23T22:48:53.911Z,55.75
2023-01-23T22:51:24.529Z,60.40
2023-01-23T22:53:53.217Z,54.40
2023-01-23T22:56:20.558Z,58.72
2023-01-23T22:58:48.524Z,56.60
2023-01-23T23:01:15.887Z,53.42
2023-01-23T23:03:46.375Z,58.38
2023-01-23T23:06:15.961Z,61.10
2023-01-23T23:08:47.121Z,55.67
2023-01-23T23:11:19.916Z,59.50
2023-01-23T23:13:47.025Z,53.80
2023-01-23T23:16:20.668Z,53.03
2023-01-23T23:18:49.470Z,58.33
2023-01-23T23:21:19.251Z,59.55
2023-01-23T23:23:46.952Z,54.97
2023-01-23T23:26:14.016Z,56.40
2023-01-23T23:28:41.344Z,53.47
2023-01-23T23:31:09.920Z,54.50
2023-01-23T23:33:37.283Z,53.15
2023-01-23T23:36:04.560Z,53.80
2023-01-23T23:38:31.477Z,54.53
2023-01-23T23:41:00.737Z,55.53
2023-01-23T23:43:28.623Z,55.83
2023-01-23T23:45:57.948Z,55.45
2023-01-23T23:48:25.749Z,50.85
2023-01-23T23:50:53.243Z,51.15
2023-01-23T23:53:20.710Z,51.17
2023-01-23T23:55:48.082Z,49.22
2023-01-23T23:58:15.341Z,53.35
